Map

Track Data

SID SEASON NUMBER BASIN SUBBASIN NAME ISO_TIME NATURE LAT LON WMO_WIND WMO_PRES WMO_AGENCY TRACK_TYPE DIST2LAND LANDFALL IFLAG USA_AGENCY USA_ATCF_ID USA_LAT USA_LON USA_RECORD USA_STATUS USA_WIND USA_PRES USA_SSHS USA_R34_NE USA_R34_SE USA_R34_SW USA_R34_NW USA_R50_NE USA_R50_SE USA_R50_SW USA_R50_NW USA_R64_NE USA_R64_SE USA_R64_SW USA_R64_NW USA_POCI USA_ROCI USA_RMW USA_EYE TOKYO_LAT TOKYO_LON TOKYO_GRADE TOKYO_WIND TOKYO_PRES TOKYO_R50_DIR TOKYO_R50_LONG TOKYO_R50_SHORT TOKYO_R30_DIR TOKYO_R30_LONG TOKYO_R30_SHORT TOKYO_LAND CMA_LAT CMA_LON CMA_CAT CMA_WIND CMA_PRES HKO_LAT HKO_LON HKO_CAT HKO_WIND HKO_PRES NEWDELHI_LAT NEWDELHI_LON NEWDELHI_GRADE NEWDELHI_WIND NEWDELHI_PRES NEWDELHI_CI NEWDELHI_DP NEWDELHI_POCI REUNION_LAT REUNION_LON REUNION_TYPE REUNION_WIND REUNION_PRES REUNION_TNUM REUNION_CI REUNION_RMW REUNION_R34_NE REUNION_R34_SE REUNION_R34_SW REUNION_R34_NW REUNION_R50_NE REUNION_R50_SE REUNION_R50_SW REUNION_R50_NW REUNION_R64_NE REUNION_R64_SE REUNION_R64_SW REUNION_R64_NW BOM_LAT BOM_LON BOM_TYPE BOM_WIND BOM_PRES BOM_TNUM BOM_CI BOM_RMW BOM_R34_NE BOM_R34_SE BOM_R34_SW BOM_R34_NW BOM_R50_NE BOM_R50_SE BOM_R50_SW BOM_R50_NW BOM_R64_NE BOM_R64_SE BOM_R64_SW BOM_R64_NW BOM_ROCI BOM_POCI BOM_EYE BOM_POS_METHOD BOM_PRES_METHOD NADI_LAT NADI_LON NADI_CAT NADI_WIND NADI_PRES WELLINGTON_LAT WELLINGTON_LON WELLINGTON_WIND WELLINGTON_PRES DS824_LAT DS824_LON DS824_STAGE DS824_WIND DS824_PRES TD9636_LAT TD9636_LON TD9636_STAGE TD9636_WIND TD9636_PRES TD9635_LAT TD9635_LON TD9635_WIND TD9635_PRES TD9635_ROCI NEUMANN_LAT NEUMANN_LON NEUMANN_CLASS NEUMANN_WIND NEUMANN_PRES MLC_LAT MLC_LON MLC_CLASS MLC_WIND MLC_PRES USA_GUST BOM_GUST BOM_GUST_PER REUNION_GUST REUNION_GUST_PER USA_SEAHGT USA_SEARAD_NE USA_SEARAD_SE USA_SEARAD_SW USA_SEARAD_NW STORM_SPEED STORM_DIR
1956238N14143 1956 78 WP MM CHARLOTTE 1956-08-25 00:00:00 TS 14.0833 143.000 1006 tokyo main 1836 1820 OOO______OOO__ jtwc_wp WP101956 13.5000 143.000 20 -1 16.0000 143.000 2 1006 0 0 0 14.5000 143.000 0 1006 13.5000 143.000 TC 20 13.5000 143.000 1 20 13.5000 143.000 20 1005 120 10 276
1956238N14143 1956 78 WP MM CHARLOTTE 1956-08-25 03:00:00 TS 14.1377 142.499 main 1820 1796 PPP______PPP__ WP101956 13.7203 142.483 20 -1 15.4102 142.499 2 1005 0 0 14.4526 142.512 0 1005 13.7203 142.483 TC 20 13.8024 142.537 1 20 13.7203 142.483 20 1004 120 10 281
1956238N14143 1956 78 WP MM CHARLOTTE 1956-08-25 06:00:00 TS 14.2689 142.013 1004 tokyo main 1796 1758 OOO______OPO__ jtwc_wp WP101956 14.0000 142.000 20 -1 15.0000 142.000 2 1004 0 0 0 14.5000 142.000 1 29 1004 14.0000 142.000 TC 20 14.1135 142.079 1 20 14.0000 142.000 20 1004 120 10 293
1956238N14143 1956 78 WP MM CHARLOTTE 1956-08-25 09:00:00 TS 14.5292 141.554 main 1758 1722 PPP______PPP__ WP101956 14.3774 141.577 20 -1 14.8949 141.500 2 1004 0 0 14.7051 141.463 1 29 1004 14.3774 141.577 TC 20 14.4428 141.631 1 20 14.3774 141.577 20 1003 150 10 305
1956238N14143 1956 78 WP MM CHARLOTTE 1956-08-25 12:00:00 TS 14.8667 141.133 1004 tokyo main 1713 1685 OOO______OOO__ jtwc_wp WP101956 14.8000 141.200 20 -1 15.0000 141.000 2 1004 0 0 0 15.0000 141.000 1 29 1004 14.8000 141.200 TC 20 14.8000 141.200 1 20 14.8000 141.200 20 1003 180 10 311
1956238N14143 1956 78 WP MM CHARLOTTE 1956-08-25 15:00:00 TS 15.1989 140.762 main 1687 1650 PPP______PPP__ WP101956 15.1923 140.865 20 -1 15.1401 140.463 2 1004 0 0 15.2847 140.727 1 29 1004 15.1923 140.865 TC 20 15.1916 140.787 1 21 15.1923 140.865 20 1002 180 10 315
1956238N14143 1956 78 WP MM CHARLOTTE 1956-08-25 18:00:00 TS 15.5686 140.396 1004 tokyo main 1653 1618 OOO______OPO__ jtwc_wp WP101956 15.6000 140.500 20 -1 15.4000 140.000 2 1004 0 0 0 15.6000 140.500 1 29 1004 15.6000 140.500 TC 20 15.6117 140.379 1 22 15.6000 140.500 20 1002 180 11 316
1956238N14143 1956 78 WP MM CHARLOTTE 1956-08-25 21:00:00 TS 15.9805 139.986 main 1620 1587 PPP______PPP__ WP101956 16.0577 140.000 22 -1 15.7471 139.749 2 1004 0 0 15.9122 140.209 1 29 1004 16.0577 140.000 TC 22 16.0509 139.956 1 23 16.0577 140.000 22 1002 180 12 316
1956238N14143 1956 78 WP MM CHARLOTTE 1956-08-26 00:00:00 TS 16.4167 139.550 1004 tokyo main 1590 1558 OOO______OOO__ jtwc_wp WP101956 16.5000 139.500 25 -1 16.2000 139.500 2 1004 0 0 0 16.3000 139.800 1 29 1004 16.5000 139.500 TC 25 16.5000 139.500 1 25 16.5000 139.500 25 1002 180 12 317
1956238N14143 1956 78 WP MM CHARLOTTE 1956-08-26 03:00:00 TS 16.8365 139.150 main 1552 1525 PPP______PPP__ WP101956 16.8344 139.186 27 -1 16.7274 139.067 2 1003 0 0 16.8276 139.203 1 33 1002 16.8344 139.186 TC 27 16.9611 139.070 1 26 16.8344 139.186 27 1001 180 12 316
1956238N14143 1956 78 WP MM CHARLOTTE 1956-08-26 06:00:00 TS 17.2877 138.665 1002 tokyo main 1529 1491 OOO______OPO__ jtwc_wp WP101956 17.2000 138.800 30 -1 17.3000 138.500 2 1002 0 0 0 17.4000 138.500 2 38 1000 17.2000 138.800 TC 30 17.4265 138.593 1 27 17.2000 138.800 30 1001 180 14 313
1956238N14143 1956 78 WP MM CHARLOTTE 1956-08-26 09:00:00 TS 17.8114 138.040 main 1481 1437 PPP______PPP__ WP101956 17.7270 138.170 30 -1 17.8719 137.882 2 1003 0 0 17.9371 137.830 2 38 998 17.7270 138.170 TC 30 17.8788 138.019 1 28 17.7270 138.170 30 1000 180 17 307
1956238N14143 1956 78 WP MM CHARLOTTE 1956-08-26 12:00:00 TS 18.3333 137.233 1004 tokyo main 1428 1372 OOO______OOO__ jtwc_wp WP101956 18.3000 137.300 30 -1 18.4000 137.100 2 1004 0 0 0 18.4000 137.100 2 38 997 18.3000 137.300 TC 30 18.3000 137.300 1 30 18.3000 137.300 30 1000 180 20 300
1956238N14143 1956 78 WP MM CHARLOTTE 1956-08-26 15:00:00 TS 18.8163 136.216 main 1363 1294 PPP______PPP__ WP101956 18.8606 136.188 40 0 18.8448 136.125 2 1003 0 0 18.7298 136.279 2 43 995 18.8606 136.188 TC 40 18.7416 136.327 1 38 18.8606 136.188 39 999 210 22 293
1956238N14143 1956 78 WP MM CHARLOTTE 1956-08-26 18:00:00 TS 19.2058 135.102 1002 tokyo main 1285 1208 OOO______OPO__ jtwc_wp WP101956 19.3000 135.000 50 0 19.2000 135.000 2 1002 0 0 0 19.0000 135.400 3 48 994 19.3000 135.000 TC 50 19.1350 135.215 1 47 19.3000 135.000 48 998 240 22 288
1956238N14143 1956 78 WP MM CHARLOTTE 1956-08-26 21:00:00 TS 19.4899 134.027 main 1198 1124 PPP______PPP__ WP101956 19.5469 133.955 57 0 19.5336 133.733 2 996 0 0 19.3299 134.493 3 53 992 19.5469 133.955 TC 57 19.4354 134.070 1 56 19.5469 133.955 56 997 240 20 282
1956238N14143 1956 78 WP MM CHARLOTTE 1956-08-27 00:00:00 TS 19.6167 133.033 990 tokyo main 1115 1047 OOO______OOO__ jtwc_wp WP101956 19.6000 133.000 65 1 19.7000 132.600 9 990 0 0 0 19.6000 133.600 3 58 990 19.6000 133.000 TC 65 19.6000 133.000 3 65 19.6000 133.000 65 997 240 17 273
1956238N14143 1956 78 WP MM CHARLOTTE 1956-08-27 03:00:00 TS 19.5706 132.191 main 1047 974 PPP______PPP__ WP101956 19.4946 132.097 65 1 19.6085 131.917 9 990 0 0 19.7519 132.785 3 63 987 19.4946 132.097 TC 65 19.5792 132.153 3 68 19.4946 132.097 65 993 240 15 263
1956238N14143 1956 78 WP MM CHARLOTTE 1956-08-27 06:00:00 TS 19.4218 131.450 990 tokyo main 963 900 OOO______OPO__ jtwc_wp WP101956 19.3000 131.300 65 1 19.4000 131.400 9 990 0 0 0 19.8000 132.000 4 68 985 19.3000 131.300 TC 65 19.4309 131.399 3 71 19.3000 131.300 65 990 240 14 258
1956238N14143 1956 78 WP MM CHARLOTTE 1956-08-27 09:00:00 TS 19.2950 130.757 main 900 825 PPP______PPP__ WP101956 19.1493 130.635 72 1 19.2724 130.750 9 985 0 0 19.8322 131.193 4 72 982 19.1493 130.635 TC 72 19.2173 130.695 3 74 19.1493 130.635 71 986 240 13 257
1956238N14143 1956 78 WP MM CHARLOTTE 1956-08-27 12:00:00 TS 19.1333 130.083 980 tokyo main 825 750 OOO______OOO__ jtwc_wp WP101956 19.0000 130.000 80 1 19.1000 130.100 9 980 0 0 0 19.7000 130.400 4 77 979 19.0000 130.000 TC 80 19.0000 130.000 4 78 19.0000 130.000 78 982 240 14 254
1956238N14143 1956 78 WP MM CHARLOTTE 1956-08-27 15:00:00 TS 18.9159 129.363 main 750 675 PPP______PPP__ WP101956 18.8424 129.265 85 2 18.8072 129.492 9 977 0 0 19.2949 129.619 4 77 977 18.8424 129.265 TC 85 18.8663 129.271 4 79 18.8424 129.265 84 980 240 14 252
1956238N14143 1956 78 WP MM CHARLOTTE 1956-08-27 18:00:00 TS 18.6901 128.640 975 tokyo main 665 601 OOO______OPO__ jtwc_wp WP101956 18.7000 128.500 90 2 18.5000 128.900 9 975 0 0 0 18.8000 128.900 4 77 975 18.7000 128.500 TC 90 18.7404 128.538 4 80 18.7000 128.500 90 978 240 14 254
1956238N14143 1956 78 WP MM CHARLOTTE 1956-08-27 21:00:00 TS 18.5191 127.948 main 590 527 PPP______PPP__ WP101956 18.5995 127.765 85 2 18.2847 128.315 9 975 0 0 18.4119 128.293 4 77 975 18.5995 127.765 TC 85 18.6193 127.786 4 81 18.5995 127.765 86 978 210 14 256
1956238N14143 1956 78 WP MM CHARLOTTE 1956-08-28 00:00:00 TS 18.3667 127.233 975 tokyo main 517 443 OOO______OOO__ jtwc_wp WP101956 18.5000 127.000 80 1 18.1000 127.700 9 975 0 0 0 18.1000 127.700 4 77 975 18.5000 127.000 TC 80 18.5000 127.000 4 82 18.5000 127.000 82 978 180 15 257
1956238N14143 1956 78 WP MM CHARLOTTE 1956-08-28 03:00:00 TS 18.1919 126.459 main 443 357 PPP______PPP__ WP101956 18.3497 126.172 77 1 17.8845 127.045 9 975 0 0 17.8543 127.060 4 77 975 18.3497 126.172 TC 77 18.3633 126.132 4 80 18.3497 126.172 78 978 180 16 258
1956238N14143 1956 78 WP MM CHARLOTTE 1956-08-28 06:00:00 TS 18.0380 125.622 975 tokyo main 347 263 OOO______OPO__ jtwc_wp WP101956 18.2000 125.300 75 1 17.7000 126.300 9 975 0 0 0 17.7000 126.300 4 77 975 18.2000 125.300 TC 75 18.2282 125.235 4 78 18.2000 125.300 75 978 180 17 261
1956238N14143 1956 78 WP MM CHARLOTTE 1956-08-28 09:00:00 TS 17.9149 124.710 main 252 162 PPP______PPP__ WP101956 18.0850 124.385 75 1 17.5325 125.429 9 975 0 0 17.5978 125.330 4 77 975 18.0850 124.385 TC 75 18.1039 124.345 4 76 18.0850 124.385 75 977 180 17 264
1956238N14143 1956 78 WP MM CHARLOTTE 1956-08-28 12:00:00 TS 17.8500 123.800 975 tokyo main 162 86 OOO______OOO__ jtwc_wp WP101956 18.0000 123.500 75 1 17.5000 124.500 9 975 0 0 0 17.6000 124.300 4 77 975 18.0000 123.500 TC 75 18.0000 123.500 4 75 18.0000 123.500 75 977 180 16 269
1956238N14143 1956 78 WP MM CHARLOTTE 1956-08-28 15:00:00 TS 17.8739 123.000 main 86 21 PPP______PPP__ WP101956 17.9421 122.713 70 1 17.7338 123.653 9 977 0 0 17.7413 123.423 4 77 977 17.9421 122.713 TC 70 17.9419 122.788 4 70 17.9421 122.713 70 977 210 15 273
1956238N14143 1956 78 WP MM CHARLOTTE 1956-08-28 18:00:00 TS 17.9173 122.219 980 tokyo main 10 0 OOO______OPO__ jtwc_wp WP101956 17.9000 122.000 65 1 18.0000 122.700 9 980 0 0 0 17.9000 122.500 4 77 980 17.9000 122.000 TC 65 17.9037 122.117 4 65 17.9000 122.000 65 977 240 15 272
1956238N14143 1956 78 WP MM CHARLOTTE 1956-08-28 21:00:00 TS 17.9181 121.386 main 0 0 PPP______PPP__ WP101956 17.8793 121.365 60 0 18.0611 121.442 9 980 0 0 17.9457 121.342 4 77 980 17.8793 121.365 TC 60 17.8637 121.438 4 60 17.8793 121.365 60 977 240 16 268
1956238N14143 1956 78 WP MM CHARLOTTE 1956-08-29 00:00:00 TS 17.8500 120.533 980 tokyo main 0 0 OOO______OOO__ jtwc_wp WP101956 17.8000 120.700 55 0 18.0000 120.200 9 980 0 0 0 17.9000 120.200 4 77 980 17.8000 120.700 TC 55 17.8000 120.700 2 55 17.8000 120.700 55 977 240 16 261
1956238N14143 1956 78 WP MM CHARLOTTE 1956-08-29 03:00:00 TS 17.6617 119.683 main 64 64 PPP______PPP__ WP101956 17.5497 119.902 67 1 17.8787 119.290 9 980 0 0 17.7792 119.290 4 77 980 17.5497 119.902 TC 67 17.6635 119.810 2 66 17.5497 119.902 66 977 240 17 256
1956238N14143 1956 78 WP MM CHARLOTTE 1956-08-29 06:00:00 TS 17.4502 118.811 980 tokyo main 159 159 OOO______OPO__ jtwc_wp WP101956 17.3000 119.000 80 1 17.7000 118.500 9 980 0 0 0 17.6000 118.500 4 77 980 17.3000 119.000 TC 80 17.5014 118.863 2 77 17.3000 119.000 78 977 240 18 258
1956238N14143 1956 78 WP MM CHARLOTTE 1956-08-29 09:00:00 TS 17.3102 117.875 main 231 231 PPP______PPP__ WP101956 17.2203 117.985 90 2 17.4773 117.635 9 980 0 0 17.3844 117.750 4 82 977 17.2203 117.985 TC 90 17.3384 117.910 2 88 17.2203 117.985 89 975 240 18 262
1956238N14143 1956 78 WP MM CHARLOTTE 1956-08-29 12:00:00 TS 17.2167 116.967 980 tokyo main 314 314 OOO______OOO__ jtwc_wp WP101956 17.2000 117.000 100 3 17.3000 116.800 9 980 0 0 0 17.2000 117.000 5 87 975 17.2000 117.000 TC 100 17.2000 117.000 3 100 17.2000 117.000 100 973 240 16 265
1956238N14143 1956 78 WP MM CHARLOTTE 1956-08-29 15:00:00 TS 17.1588 116.165 main 396 396 PPP______PPP__ WP101956 17.1493 116.213 100 3 17.2771 116.028 9 980 0 0 17.1201 116.143 5 92 972 17.1493 116.213 TC 100 17.1077 116.180 3 101 17.1493 116.213 100 970 240 15 266
1956238N14143 1956 78 WP MM CHARLOTTE 1956-08-29 18:00:00 TS 17.1243 115.418 980 tokyo main 474 474 OOO______OPO__ jtwc_wp WP101956 17.1000 115.500 100 3 17.3000 115.300 9 980 0 0 0 17.1000 115.300 5 97 970 17.1000 115.500 TC 100 17.0459 115.411 3 102 17.1000 115.500 100 967 240 14 267
1956238N14143 1956 78 WP MM CHARLOTTE 1956-08-29 21:00:00 TS 17.0799 114.686 main 480 416 PPP______PPP__ WP101956 17.0422 114.750 102 3 17.2571 114.600 9 980 0 0 17.0845 114.578 5 101 965 17.0422 114.750 TC 102 17.0112 114.686 3 103 17.0422 114.750 102 964 270 14 267
1956238N14143 1956 78 WP MM CHARLOTTE 1956-08-30 00:00:00 TS 17.0500 113.967 980 tokyo main 416 358 OOO______OOO__ jtwc_wp WP101956 17.0000 114.000 105 3 17.2000 113.900 9 980 0 0 0 17.1000 113.900 6 106 960 17.0000 114.000 TC 105 17.0000 114.000 4 105 17.0000 114.000 105 961 300 14 268
1956238N14143 1956 78 WP MM CHARLOTTE 1956-08-30 03:00:00 TS 17.0351 113.214 main 349 299 PPP______PPP__ WP101956 16.9851 113.213 107 3 17.1425 113.142 9 980 0 0 17.1350 113.178 6 106 960 16.9851 113.213 TC 107 16.9782 113.327 4 106 16.9851 113.213 107 960 300 14 270
1956238N14143 1956 78 WP MM CHARLOTTE 1956-08-30 06:00:00 TS 17.0469 112.515 980 tokyo main 292 246 OOO______OPO__ jtwc_wp WP101956 17.0000 112.500 110 3 17.1000 112.400 9 980 0 0 0 17.2000 112.500 6 106 960 17.0000 112.500 TC 110 16.9814 112.690 4 107 17.0000 112.500 110 959 300 12 272
1956238N14143 1956 78 WP MM CHARLOTTE 1956-08-30 09:00:00 TS 17.0745 111.934 main 239 207 PPP______PPP__ WP101956 17.0196 111.955 110 3 17.0846 111.735 9 980 0 0 17.2847 111.920 6 101 960 17.0196 111.955 TC 110 17.0190 112.083 4 108 17.0196 111.955 110 959 300 11 276
1956238N14143 1956 78 WP MM CHARLOTTE 1956-08-30 12:00:00 TS 17.1500 111.417 980 tokyo main 198 155 OOO______OOO__ jtwc_wp WP101956 17.1000 111.500 110 3 17.1000 111.100 9 980 0 0 0 17.4000 111.400 5 97 960 17.1000 111.500 TC 110 17.1000 111.500 4 110 17.1000 111.500 110 959 300 10 283
1956238N14143 1956 78 WP MM CHARLOTTE 1956-08-30 15:00:00 TS 17.3004 110.905 main 155 107 PPP______PPP__ WP101956 17.2846 111.073 110 3 17.1424 110.443 9 980 0 0 17.5500 110.870 5 92 962 17.2846 111.073 TC 110 17.2560 110.897 4 110 17.2846 111.073 110 958 330 10 288
1956238N14143 1956 78 WP MM CHARLOTTE 1956-08-30 18:00:00 TS 17.4750 110.386 980 tokyo main 107 67 OOO______OPO__ jtwc_wp WP101956 17.5000 110.600 110 3 17.2000 109.800 9 980 0 0 0 17.7000 110.400 5 87 965 17.5000 110.600 TC 110 17.4499 110.319 4 110 17.5000 110.600 110 958 360 11 287
1956238N14143 1956 78 WP MM CHARLOTTE 1956-08-30 21:00:00 TS 17.6212 109.797 main 67 55 PPP______PPP__ WP101956 17.6729 109.935 110 3 17.2499 109.170 9 980 0 0 17.8148 110.027 5 82 967 17.6729 109.935 TC 110 17.6437 109.781 4 110 17.6729 109.935 110 958 360 11 283
1956238N14143 1956 78 WP MM CHARLOTTE 1956-08-31 00:00:00 TS 17.7333 109.250 980 tokyo main 59 59 OOO______OOO__ jtwc_wp WP101956 17.8000 109.300 110 3 17.3000 108.600 9 980 0 0 0 17.9000 109.700 4 77 970 17.8000 109.300 TC 110 17.8000 109.300 4 110 17.8000 109.300 110 958 360 9 281
1956238N14143 1956 78 WP MM CHARLOTTE 1956-08-31 03:00:00 TS 17.8036 108.849 main 70 70 PPP______PPP__ WP101956 17.8721 108.905 110 3 17.3497 108.127 9 980 0 0 17.9648 109.365 4 77 972 17.8721 108.905 TC 110 17.8906 108.886 4 107 17.8721 108.905 110 960 360 7 278
1956238N14143 1956 78 WP MM CHARLOTTE 1956-08-31 06:00:00 TS 17.8337 108.503 980 tokyo main 81 81 OOO______OPO__ jtwc_wp WP101956 17.9000 108.600 110 3 17.4000 107.700 9 980 0 0 0 18.0000 109.000 4 77 975 17.9000 108.600 TC 110 17.9250 108.527 4 105 17.9000 108.600 110 962 360 7 273
1956238N14143 1956 78 WP MM CHARLOTTE 1956-08-31 09:00:00 TS 17.8437 108.123 main 100 100 PPP______PPP__ WP101956 17.9075 108.242 105 3 17.4498 107.257 9 983 0 0 18.0073 108.587 4 72 977 17.9075 108.242 TC 105 17.9220 108.204 4 102 17.9075 108.242 105 964 360 7 270
1956238N14143 1956 78 WP MM CHARLOTTE 1956-08-31 12:00:00 TS 17.8400 107.720 986 tokyo main 100 77 OOO______OOO__ jtwc_wp WP101956 17.9000 107.900 100 3 17.5000 106.800 9 986 0 0 0 18.0000 108.100 4 68 980 17.9000 107.900 TC 100 17.9000 107.900 4 100 17.9000 107.900 100 966 360 8 269
1956238N14143 1956 78 WP MM CHARLOTTE 1956-08-31 15:00:00 TS 17.8325 107.278 main 77 42 PPP______P_P__ WP101956 17.8775 107.570 100 3 17.5501 106.278 9 987 0 0 17.9924 107.537 4 68 980 17.8775 107.570 TC 100 4 17.8976 107.590 100 969 360 8 271
1956238N14143 1956 78 WP MM CHARLOTTE 1956-08-31 18:00:00 TS 17.8529 106.853 988 tokyo main 42 10 OOO______O_O__ jtwc_wp WP101956 17.9000 107.300 100 3 17.6000 105.800 9 988 0 0 0 18.0000 106.900 4 68 980 17.9000 107.300 TC 100 4 17.9000 107.300 100 972 360 7 278
1956238N14143 1956 78 WP MM CHARLOTTE 1956-08-31 21:00:00 TS 17.9326 106.543 main 0 0 PPP______P____ WP101956 18.0265 107.255 95 2 17.6349 105.440 9 989 0 0 18.0423 106.223 4 58 982 18.0265 107.255 TC 95 4 7 287
1956238N14143 1956 78 WP MM CHARLOTTE 1956-09-01 00:00:00 TS 18.0500 106.175 990 tokyo main 0 0 OOO______O____ jtwc_wp WP101956 18.2000 107.000 90 2 17.7000 105.200 9 990 0 0 0 18.1000 105.500 3 48 985 18.2000 107.000 TC 90 10 283
1956238N14143 1956 78 WP MM CHARLOTTE 1956-09-01 03:00:00 TS 18.1566 105.526 main 0 0 PPP______P____ WP101956 18.3359 106.127 85 2 17.8199 105.092 9 990 0 0 18.1348 104.757 3 43 987 18.3359 106.127 TC 85 13 281
1956238N14143 1956 78 WP MM CHARLOTTE 1956-09-01 06:00:00 TS 18.3067 104.800 990 tokyo main 0 0 OOO______O____ jtwc_wp WP101956 18.5000 105.000 80 1 18.0000 105.000 9 990 0 0 0 18.2000 104.000 2 38 990 18.5000 105.000 TC 80 14 285
1956238N14143 1956 78 WP MM CHARLOTTE 1956-09-01 09:00:00 TS 18.5130 104.092 main 0 0 PPP______P____ WP101956 18.6975 103.962 70 1 18.2350 104.773 9 991 0 0 18.3305 103.248 2 33 993 18.6975 103.962 TC 70 14 291
1956238N14143 1956 78 WP MM CHARLOTTE 1956-09-01 12:00:00 TS 18.8077 103.423 992 tokyo main 0 0 OOO______O____ jtwc_wp WP101956 19.0000 103.000 60 0 18.5000 104.500 2 992 0 0 0 18.5000 102.500 1 29 996 19.0000 103.000 TC 60 13 302
1956238N14143 1956 78 WP MM CHARLOTTE 1956-09-01 15:00:00 TS 19.2115 102.929 main 0 0 PP_______P____ WP101956 19.4612 102.249 52 0 18.7123 104.287 2 993 0 0 1 19.4612 102.249 TC 52 13 310
1956238N14143 1956 78 WP MM CHARLOTTE 1956-09-01 18:00:00 TS 19.6667 102.333 995 tokyo main 0 0 OO_______O____ jtwc_wp WP101956 20.0000 101.500 45 0 19.0000 104.000 2 995 0 0 0 20.0000 101.500 TC 45 16 306
1956238N14143 1956 78 WP MM CHARLOTTE 1956-09-01 21:00:00 TS 20.1598 101.560 main 0 0 PP_______P____ WP101956 20.5145 100.564 37 0 19.4505 103.551 2 997 0 0 20.5145 100.564 TC 37 19 303
1956238N14143 1956 78 WP MM CHARLOTTE 1956-09-02 00:00:00 TS 20.6667 100.667 1000 tokyo main 0 OO_______O____ jtwc_wp WP101956 21.0000 99.5000 30 -1 20.0000 103.000 2 1000 0 0 0 21.0000 99.5000 TC 30 20 301

Digital Typhoon Data and Search

About IBTrACS Database

This database is a web-friendly format of International Best Track Archive for Climate Stewardship (IBTrACS), a global best track data archive curated by NOAA dating back to 1842.

Updated: 2021-12-03